Time;durP1;ratioP1;P1;durP2;ratioP2;P2;SDS_P1;SDS_P2;PMS_P1;PMS_P2;Temp;Humidity;BMP_temperature;BMP_pressure;BME280_temperature;BME280_humidity;BME280_pressure;Samples;Min_cycle;Max_cycle;Signal;HPM_P1;HPM_P2
2022/03/19 00:00:05;;;;;;;64.27;27.70;;;;;;;-0.94;54.84;96695.34;5021537;28;20684;-76
2022/03/19 00:02:34;;;;;;;73.10;29.13;;;;;;;-0.87;54.00;96684.69;5019964;28;20277;-76
2022/03/19 00:05:03;;;;;;;72.83;32.53;;;;;;;-0.83;54.74;96690.38;5019831;28;20199;-75
2022/03/19 00:07:34;;;;;;;76.87;34.03;;;;;;;-0.80;54.20;96688.44;5019442;28;20191;-76
2022/03/19 00:10:01;;;;;;;87.03;36.90;;;;;;;-0.78;54.48;96696.03;5020276;28;20198;-76
2022/03/19 00:12:30;;;;;;;79.77;31.97;;;;;;;-0.75;55.24;96691.53;5017985;28;20203;-76
2022/03/19 00:14:58;;;;;;;71.27;30.67;;;;;;;-0.68;55.55;96695.31;5018410;28;20224;-76
2022/03/19 00:17:26;;;;;;;72.87;31.47;;;;;;;-0.64;55.51;96688.28;5021032;28;20233;-76
2022/03/19 00:19:55;;;;;;;67.73;29.47;;;;;;;-0.60;55.52;96685.44;5023042;28;20681;-77
2022/03/19 00:22:24;;;;;;;71.63;31.03;;;;;;;-0.54;54.71;96685.94;5022965;28;20202;-75
2022/03/19 00:24:54;;;;;;;60.53;27.00;;;;;;;-0.56;54.04;96688.63;5024486;28;20653;-75
2022/03/19 00:27:22;;;;;;;61.57;26.97;;;;;;;-0.61;54.01;96683.78;5022709;28;20199;-76
2022/03/19 00:29:50;;;;;;;63.03;26.87;;;;;;;-0.53;53.83;96690.16;5023762;28;20192;-75
2022/03/19 00:32:18;;;;;;;54.23;25.63;;;;;;;-0.55;54.11;96681.78;5022410;28;20233;-76
2022/03/19 00:34:46;;;;;;;64.13;27.77;;;;;;;-0.65;53.67;96669.59;5022943;28;20234;-75
2022/03/19 00:37:14;;;;;;;60.13;29.20;;;;;;;-0.59;53.88;96686.25;5024335;28;20229;-76
2022/03/19 00:39:43;;;;;;;60.00;27.43;;;;;;;-0.60;53.36;96674.41;5023013;28;20219;-75
2022/03/19 00:42:12;;;;;;;64.10;28.77;;;;;;;-0.71;54.48;96672.56;5022705;28;20200;-74
2022/03/19 00:44:42;;;;;;;93.93;41.07;;;;;;;-0.78;54.38;96683.25;5023052;28;20284;-75
2022/03/19 00:47:09;;;;;;;146.60;65.83;;;;;;;-0.80;54.92;96674.88;5024421;28;20207;-74
2022/03/19 00:49:37;;;;;;;152.73;72.87;;;;;;;-0.85;56.06;96674.34;5023825;28;20281;-76
2022/03/19 00:52:05;;;;;;;119.90;55.70;;;;;;;-0.74;56.99;96688.06;5024993;28;20203;-76
2022/03/19 00:54:34;;;;;;;114.00;50.33;;;;;;;-0.82;56.37;96695.41;5023233;28;20651;-76
2022/03/19 00:57:02;;;;;;;113.50;49.77;;;;;;;-0.83;56.06;96682.72;5027388;28;20243;-75
2022/03/19 00:59:32;;;;;;;84.70;37.90;;;;;;;-0.88;55.71;96688.13;5022736;28;20192;-75
2022/03/19 01:01:59;;;;;;;72.03;33.73;;;;;;;-0.95;55.68;96678.44;5022663;28;20274;-75
2022/03/19 01:04:28;;;;;;;66.50;30.33;;;;;;;-0.95;55.97;96688.63;5022543;28;20576;-74
2022/03/19 01:06:58;;;;;;;90.90;41.80;;;;;;;-0.88;56.46;96690.69;5022274;28;20597;-75
2022/03/19 01:09:27;;;;;;;109.10;48.73;;;;;;;-0.92;57.02;96689.22;5022724;28;20200;-74
2022/03/19 01:11:55;;;;;;;114.40;50.30;;;;;;;-0.85;56.56;96682.84;5024757;28;20280;-74
2022/03/19 01:14:22;;;;;;;101.13;45.40;;;;;;;-0.91;56.24;96685.78;5021246;28;20199;-74
2022/03/19 01:16:52;;;;;;;111.97;47.77;;;;;;;-0.90;56.80;96684.03;5022963;28;20223;-74
2022/03/19 01:19:52;;;;;;;95.27;43.20;;;;;;;-0.97;56.87;96685.34;5023414;28;20202;-74
2022/03/19 01:22:09;;;;;;;76.53;36.23;;;;;;;-1.00;56.54;96680.44;5022175;28;20199;-74
2022/03/19 01:24:37;;;;;;;76.03;32.10;;;;;;;-1.00;55.85;96676.16;5021418;28;20195;-75
2022/03/19 01:27:05;;;;;;;81.93;38.57;;;;;;;-0.99;56.48;96675.25;5023433;28;20285;-74
2022/03/19 01:29:33;;;;;;;101.03;44.50;;;;;;;-1.06;57.94;96675.72;5021050;28;20222;-74
2022/03/19 01:32:03;;;;;;;127.63;54.53;;;;;;;-1.11;58.76;96665.81;5024378;28;20199;-74
2022/03/19 01:34:31;;;;;;;149.50;62.70;;;;;;;-1.01;59.30;96671.94;5021201;28;20213;-75
2022/03/19 01:36:59;;;;;;;95.30;41.70;;;;;;;-1.09;58.41;96668.25;5021591;28;20214;-74
2022/03/19 01:39:27;;;;;;;73.43;33.33;;;;;;;-1.16;58.72;96670.38;5022454;28;20210;-75
2022/03/19 01:41:55;;;;;;;59.60;27.60;;;;;;;-1.32;59.20;96654.41;5021113;28;20307;-74
2022/03/19 01:44:24;;;;;;;76.83;29.90;;;;;;;-1.28;59.41;96668.59;5022143;28;20582;-75
2022/03/19 01:46:56;;;;;;;75.67;33.40;;;;;;;-1.28;59.86;96666.06;5021477;28;20198;-75
2022/03/19 01:49:27;;;;;;;85.03;32.90;;;;;;;-1.31;59.72;96666.25;5020692;28;20199;-73
2022/03/19 01:51:55;;;;;;;57.60;27.93;;;;;;;-1.26;59.35;96659.13;5021047;28;20253;-74
2022/03/19 01:54:28;;;;;;;67.83;29.10;;;;;;;-1.28;59.74;96661.78;5021036;28;20279;-74
2022/03/19 01:56:58;;;;;;;55.37;25.17;;;;;;;-1.31;59.37;96656.88;5023121;28;20227;-74
2022/03/19 01:59:27;;;;;;;99.60;41.40;;;;;;;-1.29;58.66;96659.31;5021585;28;20583;-75
2022/03/19 02:01:56;;;;;;;104.00;43.60;;;;;;;-1.37;58.85;96654.69;5021998;28;20211;-75
2022/03/19 02:04:26;;;;;;;109.77;46.13;;;;;;;-1.34;59.09;96654.50;5022678;28;20199;-74
2022/03/19 02:06:55;;;;;;;107.37;46.00;;;;;;;-1.33;59.37;96647.69;5023815;28;20219;-76
2022/03/19 02:09:24;;;;;;;110.33;46.90;;;;;;;-1.30;59.67;96647.50;5022177;28;20214;-74
2022/03/19 02:11:52;;;;;;;119.83;49.57;;;;;;;-1.24;60.32;96649.66;5020766;28;20624;-75
2022/03/19 02:14:20;;;;;;;130.43;53.07;;;;;;;-1.33;60.48;96637.47;5021078;28;20274;-73
2022/03/19 02:16:49;;;;;;;166.97;58.57;;;;;;;-1.24;60.53;96644.56;5022487;28;20648;-74
2022/03/19 02:19:17;;;;;;;150.60;56.40;;;;;;;-1.27;60.59;96644.75;5022356;28;20203;-74
2022/03/19 02:21:48;;;;;;;144.03;56.07;;;;;;;-1.32;61.35;96646.75;5020226;28;20209;-75
2022/03/19 02:27:04;;;;;;;111.83;43.23;;;;;;;-1.45;61.20;96641.63;5023405;28;20186;-75
2022/03/19 02:29:33;;;;;;;95.07;38.33;;;;;;;-1.48;61.07;96641.81;5021074;28;20923;-74
2022/03/19 02:32:05;;;;;;;86.83;35.83;;;;;;;-1.54;60.54;96642.19;5019788;28;20191;-75
2022/03/19 02:34:34;;;;;;;82.07;35.20;;;;;;;-1.44;60.34;96640.69;5022912;28;20283;-73
2022/03/19 02:37:03;;;;;;;84.87;36.03;;;;;;;-1.48;60.36;96646.91;5020987;28;20221;-73
2022/03/19 02:39:32;;;;;;;78.40;34.00;;;;;;;-1.47;61.09;96645.19;5024266;28;20672;-74
2022/03/19 02:42:02;;;;;;;47.93;23.97;;;;;;;-1.47;60.12;96650.28;5020132;28;20258;-74
2022/03/19 02:44:31;;;;;;;46.47;21.67;;;;;;;-1.53;60.08;96648.09;5020599;28;20196;-74
2022/03/19 02:47:01;;;;;;;46.10;20.97;;;;;;;-1.57;60.31;96644.09;5020835;28;20283;-76
2022/03/19 02:49:29;;;;;;;47.07;21.67;;;;;;;-1.55;60.66;96658.38;5021505;28;20268;-77
2022/03/19 02:51:57;;;;;;;48.00;21.20;;;;;;;-1.56;60.77;96664.41;5019512;28;20203;-74
2022/03/19 02:54:27;;;;;;;49.27;22.27;;;;;;;-1.54;60.58;96661.75;5024695;28;20191;-74
2022/03/19 02:56:57;;;;;;;46.40;20.83;;;;;;;-1.59;60.61;96659.50;5020204;28;20321;-74
2022/03/19 02:59:27;;;;;;;44.87;21.50;;;;;;;-1.62;60.29;96657.13;5020918;28;20299;-74
2022/03/19 03:01:57;;;;;;;42.90;20.83;;;;;;;-1.65;60.12;96661.59;5019159;28;20258;-74
2022/03/19 03:04:25;;;;;;;46.83;22.97;;;;;;;-1.65;60.91;96656.50;5026363;28;20195;-74
2022/03/19 03:06:55;;;;;;;49.87;24.50;;;;;;;-1.70;61.22;96666.97;5022152;28;20192;-73
2022/03/19 03:09:25;;;;;;;45.63;22.70;;;;;;;-1.70;60.79;96661.06;5023586;28;20199;-73
2022/03/19 03:11:53;;;;;;;47.63;22.90;;;;;;;-1.73;60.77;96662.03;5020958;28;20198;-73
2022/03/19 03:14:24;;;;;;;48.40;22.53;;;;;;;-1.82;61.51;96660.09;5021484;28;20287;-72
2022/03/19 03:16:54;;;;;;;50.33;22.73;;;;;;;-1.81;62.01;96661.69;5021077;28;20265;-72
2022/03/19 03:19:22;;;;;;;44.37;22.37;;;;;;;-1.75;61.76;96659.59;5021106;28;20554;-73
2022/03/19 03:21:50;;;;;;;44.70;20.97;;;;;;;-1.75;61.78;96654.50;5021551;28;20218;-71
2022/03/19 03:24:18;;;;;;;40.33;20.67;;;;;;;-1.77;61.14;96655.53;5020248;28;20241;-71
2022/03/19 03:26:47;;;;;;;48.73;21.37;;;;;;;-1.82;61.63;96647.34;5021839;28;20274;-72
2022/03/19 03:29:14;;;;;;;44.57;22.47;;;;;;;-1.84;62.08;96660.16;5023624;28;20211;-72
2022/03/19 03:31:44;;;;;;;45.80;22.90;;;;;;;-1.83;62.28;96655.88;5021869;28;20202;-75
2022/03/19 03:34:13;;;;;;;50.47;22.00;;;;;;;-1.90;62.64;96657.16;5021641;28;20191;-74
2022/03/19 03:36:41;;;;;;;56.20;24.40;;;;;;;-1.90;62.71;96652.06;5019703;28;20571;-74
2022/03/19 03:39:09;;;;;;;47.77;22.83;;;;;;;-1.88;62.98;96656.19;5022845;28;20290;-75
2022/03/19 03:41:38;;;;;;;54.53;23.83;;;;;;;-1.87;62.80;96651.88;5021162;28;20663;-74
2022/03/19 03:44:06;;;;;;;46.97;24.03;;;;;;;-1.89;62.70;96651.97;5020393;28;20199;-74
2022/03/19 03:46:34;;;;;;;54.70;27.30;;;;;;;-1.91;63.23;96645.34;5022976;28;20190;-73
2022/03/19 03:49:03;;;;;;;67.23;33.50;;;;;;;-1.94;63.30;96637.88;5020550;28;20581;-74
2022/03/19 03:51:32;;;;;;;74.77;37.23;;;;;;;-1.95;63.73;96647.25;5020444;28;20203;-71
2022/03/19 03:54:01;;;;;;;103.60;48.10;;;;;;;-2.01;64.21;96649.34;5021280;28;20205;-74
2022/03/19 03:56:29;;;;;;;93.57;44.87;;;;;;;-2.07;64.32;96650.53;5019188;28;20285;-74
2022/03/19 03:58:56;;;;;;;99.27;43.07;;;;;;;-2.06;65.34;96648.81;5019361;28;20225;-74
2022/03/19 04:01:26;;;;;;;91.40;41.47;;;;;;;-2.09;65.66;96654.91;5023582;28;20202;-75
2022/03/19 04:03:54;;;;;;;78.53;37.90;;;;;;;-2.09;65.64;96654.09;5025483;28;21107;-74
2022/03/19 04:06:24;;;;;;;76.40;35.83;;;;;;;-2.08;65.72;96653.19;5022381;28;20214;-74
2022/03/19 04:08:53;;;;;;;67.73;33.30;;;;;;;-2.17;65.33;96648.63;5020662;28;20629;-74
2022/03/19 04:11:21;;;;;;;65.53;32.03;;;;;;;-2.16;65.32;96653.63;5026542;28;20195;-74
2022/03/19 04:13:49;;;;;;;70.97;35.03;;;;;;;-2.24;66.94;96657.53;5023629;28;20581;-75
2022/03/19 04:16:17;;;;;;;80.03;34.70;;;;;;;-2.16;67.27;96650.25;5018952;28;20223;-74
2022/03/19 04:18:45;;;;;;;73.80;34.60;;;;;;;-2.15;67.48;96652.72;5021081;28;20245;-75
2022/03/19 04:21:14;;;;;;;74.37;33.30;;;;;;;-2.10;66.33;96655.81;5019743;28;20202;-74
2022/03/19 04:23:43;;;;;;;71.07;33.43;;;;;;;-2.05;66.79;96655.56;5021783;28;20202;-74
2022/03/19 04:26:11;;;;;;;67.33;34.40;;;;;;;-2.03;67.16;96653.72;5018735;28;20191;-73
2022/03/19 04:28:40;;;;;;;73.30;33.27;;;;;;;-2.03;67.35;96654.53;5019116;28;20203;-74
2022/03/19 04:31:09;;;;;;;70.70;31.93;;;;;;;-1.99;67.03;96663.63;5020473;28;20227;-74
2022/03/19 04:33:37;;;;;;;71.50;33.77;;;;;;;-1.95;66.32;96657.44;5021546;28;20199;-74
2022/03/19 04:38:55;;;;;;;101.17;45.10;;;;;;;-2.01;66.33;96659.53;5021126;28;20275;-74
2022/03/19 04:41:24;;;;;;;89.03;41.27;;;;;;;-2.03;66.28;96657.09;5020154;28;20676;-74
2022/03/19 04:43:53;;;;;;;92.97;41.90;;;;;;;-2.04;66.95;96664.81;5020754;28;20627;-74
2022/03/19 04:46:21;;;;;;;83.37;37.50;;;;;;;-2.03;66.63;96652.00;5020109;28;20199;-75
2022/03/19 04:48:50;;;;;;;67.83;31.63;;;;;;;-1.98;65.95;96657.63;5019390;28;20195;-74
2022/03/19 04:51:19;;;;;;;75.70;35.17;;;;;;;-2.04;65.96;96658.00;5019095;28;20213;-74
2022/03/19 04:53:50;;;;;;;63.93;31.57;;;;;;;-2.05;65.83;96656.34;5019672;28;20286;-75
2022/03/19 04:56:25;;;;;;;60.90;29.27;;;;;;;-2.02;65.67;96658.72;5020596;28;20238;-75
2022/03/19 04:58:55;;;;;;;83.53;30.20;;;;;;;-2.04;65.75;96652.06;5020054;28;20187;-74
2022/03/19 05:01:25;;;;;;;79.73;35.83;;;;;;;-2.06;66.25;96653.91;5018770;28;20211;-75
2022/03/19 05:03:55;;;;;;;92.17;38.30;;;;;;;-1.92;66.70;96667.44;5019806;28;20194;-74
2022/03/19 05:06:24;;;;;;;88.73;38.57;;;;;;;-1.90;66.65;96657.16;5022484;28;20195;-75
2022/03/19 05:11:12;;;;;;;133.77;65.13;;;;;;;-1.89;66.80;96662.19;5022801;28;20198;-74
2022/03/19 05:11:42;;;;;;;145.50;63.37;;;;;;;-1.89;66.89;96654.53;5023284;28;20199;-75
2022/03/19 05:14:12;;;;;;;129.17;58.77;;;;;;;-1.84;66.00;96659.34;5022813;28;20198;-74
2022/03/19 05:16:41;;;;;;;117.30;50.63;;;;;;;-1.87;66.54;96657.78;5022695;28;20222;-74
2022/03/19 05:19:10;;;;;;;100.27;45.87;;;;;;;-1.84;66.81;96664.44;5024290;28;20206;-74
2022/03/19 05:21:39;;;;;;;69.47;34.60;;;;;;;-1.83;65.99;96660.97;5023576;28;20195;-75
2022/03/19 05:24:07;;;;;;;61.10;28.70;;;;;;;-1.81;65.76;96666.78;5021467;28;20205;-74
2022/03/19 05:26:37;;;;;;;51.00;25.53;;;;;;;-1.76;65.08;96670.69;5022937;28;20192;-75
2022/03/19 05:29:07;;;;;;;44.13;23.03;;;;;;;-1.66;64.52;96672.69;5023605;28;20292;-72
2022/03/19 05:31:35;;;;;;;39.63;21.47;;;;;;;-1.56;64.01;96668.69;5023277;28;20201;-73
2022/03/19 05:36:49;;;;;;;43.23;19.80;;;;;;;-1.49;62.53;96670.75;5022143;28;20638;-72
2022/03/19 05:39:18;;;;;;;35.60;18.47;;;;;;;-1.46;62.42;96669.75;5021571;28;20302;-72
2022/03/19 05:41:46;;;;;;;37.30;19.07;;;;;;;-1.43;61.82;96674.66;5023342;28;20195;-73
2022/03/19 05:44:16;;;;;;;39.73;18.90;;;;;;;-1.43;61.96;96672.09;5023177;28;20289;-72
2022/03/19 05:46:45;;;;;;;34.37;16.70;;;;;;;-1.44;61.50;96676.38;5020030;28;20199;-72
2022/03/19 05:49:13;;;;;;;28.20;14.30;;;;;;;-1.48;60.64;96674.13;5021845;28;20209;-73
2022/03/19 05:51:41;;;;;;;27.67;14.07;;;;;;;-1.46;59.20;96678.22;5021869;28;20554;-72
2022/03/19 05:54:10;;;;;;;24.23;13.60;;;;;;;-1.43;58.69;96672.09;5021572;28;20791;-72
2022/03/19 05:56:38;;;;;;;25.93;13.23;;;;;;;-1.45;58.12;96684.13;5023948;28;20253;-72
2022/03/19 05:59:06;;;;;;;27.50;13.87;;;;;;;-1.51;57.92;96679.41;5021828;28;20211;-73
2022/03/19 06:01:37;;;;;;;28.77;14.50;;;;;;;-1.49;58.44;96688.59;5021742;28;20194;-72
2022/03/19 06:04:06;;;;;;;28.83;14.03;;;;;;;-1.42;58.20;96683.94;5019798;28;20299;-73
2022/03/19 06:06:35;;;;;;;33.33;13.73;;;;;;;-1.31;58.42;96687.47;5023312;28;20191;-73
2022/03/19 06:09:03;;;;;;;30.40;14.57;;;;;;;-1.27;58.02;96688.09;5021520;28;20195;-72
2022/03/19 06:11:31;;;;;;;26.93;13.97;;;;;;;-1.21;57.90;96693.63;5019964;28;20198;-73
2022/03/19 06:13:59;;;;;;;30.47;15.03;;;;;;;-1.09;57.01;96686.94;5021126;28;20223;-72
2022/03/19 06:16:28;;;;;;;30.33;14.33;;;;;;;-1.07;56.77;96681.75;5020875;28;20219;-72
2022/03/19 06:18:58;;;;;;;24.70;13.97;;;;;;;-1.03;56.37;96685.72;5022235;28;20231;-72
2022/03/19 06:21:26;;;;;;;29.97;13.33;;;;;;;-1.04;56.06;96677.28;5021538;28;20655;-72
2022/03/19 06:23:55;;;;;;;32.73;14.93;;;;;;;-0.94;56.38;96688.53;5021267;28;20206;-71
2022/03/19 06:26:23;;;;;;;30.07;14.47;;;;;;;-0.92;55.98;96680.75;5021176;28;20195;-72
2022/03/19 06:28:52;;;;;;;35.00;15.43;;;;;;;-0.83;55.48;96685.28;5022879;28;20227;-73
2022/03/19 06:31:20;;;;;;;30.03;15.53;;;;;;;-0.81;55.56;96686.81;5022065;28;20277;-72
2022/03/19 06:33:48;;;;;;;34.63;16.03;;;;;;;-0.86;55.45;96678.63;5024048;28;20624;-73
2022/03/19 06:39:02;;;;;;;30.63;15.53;;;;;;;-0.68;55.62;96686.84;5021002;28;20194;-73
2022/03/19 06:41:31;;;;;;;32.67;16.37;;;;;;;-0.76;55.67;96686.53;5024388;28;20267;-73
2022/03/19 06:44:01;;;;;;;30.70;15.83;;;;;;;-0.70;55.54;96689.50;5023325;28;20206;-75
2022/03/19 06:46:29;;;;;;;31.90;16.27;;;;;;;-0.66;55.55;96693.50;5022475;28;20229;-75
2022/03/19 06:48:57;;;;;;;34.53;17.17;;;;;;;-0.65;55.90;96696.88;5022044;28;20254;-75
2022/03/19 06:51:28;;;;;;;32.87;17.03;;;;;;;-0.64;55.65;96691.66;5025540;28;20201;-75
2022/03/19 06:53:56;;;;;;;31.73;16.90;;;;;;;-0.55;55.93;96694.53;5020941;28;20199;-74
2022/03/19 06:56:24;;;;;;;31.40;16.87;;;;;;;-0.50;55.96;96695.88;5020864;28;20222;-75
2022/03/19 06:58:52;;;;;;;31.93;16.33;;;;;;;-0.46;55.73;96687.09;5021481;28;20198;-74
2022/03/19 07:01:19;;;;;;;31.97;16.37;;;;;;;-0.60;55.11;96680.31;5022904;28;20203;-74
2022/03/19 07:03:49;;;;;;;29.90;16.53;;;;;;;-0.48;54.89;96680.44;5020010;28;20206;-74
2022/03/19 07:06:18;;;;;;;36.07;17.47;;;;;;;-0.41;54.62;96674.84;5020240;28;20206;-73
2022/03/19 07:08:50;;;;;;;34.90;15.80;;;;;;;-0.42;53.75;96680.03;5021226;28;20281;-75
2022/03/19 07:11:18;;;;;;;34.23;15.37;;;;;;;-0.42;53.32;96680.03;5020466;28;20203;-76
2022/03/19 07:13:47;;;;;;;33.30;16.30;;;;;;;-0.35;53.83;96673.63;5021776;28;20198;-75
2022/03/19 07:16:17;;;;;;;38.53;16.70;;;;;;;-0.26;53.39;96678.91;5021190;28;20270;-75
2022/03/19 07:18:46;;;;;;;30.97;15.57;;;;;;;-0.32;53.58;96679.34;5018674;28;20210;-76
2022/03/19 07:21:15;;;;;;;34.77;16.13;;;;;;;-0.40;52.77;96671.34;5020528;28;20986;-75
2022/03/19 07:23:43;;;;;;;30.53;16.17;;;;;;;-0.43;53.06;96678.44;5019177;28;20199;-74
2022/03/19 07:26:13;;;;;;;33.60;16.87;;;;;;;-0.34;53.60;96673.50;5021779;28;20266;-75
2022/03/19 07:28:41;;;;;;;36.13;16.53;;;;;;;-0.15;53.15;96671.38;5018976;28;20274;-73
2022/03/19 07:31:08;;;;;;;34.77;17.87;;;;;;;0.03;52.92;96661.63;5023441;28;20245;-74
2022/03/19 07:33:38;;;;;;;36.00;19.00;;;;;;;0.16;51.84;96669.31;5022488;28;20290;-73
2022/03/19 07:36:06;;;;;;;42.57;21.57;;;;;;;0.25;51.72;96663.56;5020077;28;20719;-73
2022/03/19 07:38:34;;;;;;;47.80;23.03;;;;;;;0.24;51.72;96669.59;5023030;28;20242;-72
2022/03/19 07:43:49;;;;;;;52.83;25.47;;;;;;;0.24;52.15;96670.41;5021978;28;20323;-73
2022/03/19 07:46:17;;;;;;;40.67;21.57;;;;;;;0.34;51.69;96666.31;5021091;28;20215;-72
2022/03/19 07:48:45;;;;;;;35.83;19.20;;;;;;;0.46;51.15;96660.34;5021433;28;20190;-73
2022/03/19 07:51:13;;;;;;;36.17;18.10;;;;;;;0.56;49.67;96669.00;5020477;28;20662;-73
2022/03/19 07:53:43;;;;;;;36.63;16.80;;;;;;;0.58;49.81;96663.78;5019523;28;20202;-72
2022/03/19 07:56:10;;;;;;;30.73;16.47;;;;;;;0.66;49.36;96665.81;5021029;28;20296;-73
2022/03/19 07:58:40;;;;;;;30.27;14.70;;;;;;;0.75;49.32;96668.53;5021172;28;20896;-72
2022/03/19 08:01:10;;;;;;;27.53;14.70;;;;;;;0.88;49.49;96668.50;5020541;28;20579;-73
2022/03/19 08:03:38;;;;;;;31.93;15.17;;;;;;;0.96;48.89;96661.06;5019827;28;20199;-75
2022/03/19 08:06:07;;;;;;;33.37;15.23;;;;;;;1.10;47.83;96666.84;5022839;28;20647;-75
2022/03/19 08:08:37;;;;;;;27.73;14.53;;;;;;;1.13;47.85;96674.31;5021962;28;20194;-75
2022/03/19 08:11:05;;;;;;;29.30;14.77;;;;;;;1.19;47.59;96662.81;5029749;28;20197;-79
2022/03/19 08:13:34;;;;;;;26.80;13.57;;;;;;;1.38;47.08;96663.13;5025711;28;20679;-82
2022/03/19 08:16:02;;;;;;;26.37;12.90;;;;;;;1.45;45.32;96658.34;5022894;28;20199;-77
2022/03/19 08:18:31;;;;;;;23.77;12.07;;;;;;;1.51;44.37;96668.97;5019513;28;20305;-80
2022/03/19 08:21:01;;;;;;;22.80;11.57;;;;;;;1.60;44.21;96664.91;5022144;28;20238;-80
2022/03/19 08:23:29;;;;;;;21.13;11.60;;;;;;;1.73;43.41;96660.53;5019564;28;20295;-80
2022/03/19 08:25:57;;;;;;;24.63;12.27;;;;;;;1.83;42.81;96661.47;5030068;28;20217;-82
2022/03/19 08:28:25;;;;;;;22.00;11.83;;;;;;;1.91;42.79;96641.19;5016530;28;20205;-78
2022/03/19 08:30:53;;;;;;;23.90;12.07;;;;;;;2.09;43.48;96652.63;5024884;28;20234;-77
2022/03/19 08:33:21;;;;;;;24.50;12.00;;;;;;;2.29;44.74;96657.06;5023174;28;20202;-80
2022/03/19 08:35:50;;;;;;;23.27;12.40;;;;;;;2.52;42.68;96659.59;5014322;28;20201;-81
2022/03/19 08:41:05;;;;;;;19.40;11.87;;;;;;;2.92;43.27;96647.81;5024918;28;20206;-78
2022/03/19 08:43:33;;;;;;;23.20;11.23;;;;;;;2.96;41.17;96648.41;5027580;28;20285;-79
2022/03/19 08:46:02;;;;;;;16.73;10.33;;;;;;;2.90;40.06;96642.00;5023592;28;20191;-79
2022/03/19 08:48:30;;;;;;;25.50;11.60;;;;;;;2.86;40.53;96638.84;5020474;28;20210;-76
2022/03/19 08:51:39;;;;;;;20.80;11.83;;;;;;;2.93;40.41;96646.91;5022096;28;20362;-77
2022/03/19 08:53:48;;;;;;;23.97;11.53;;;;;;;3.10;40.44;96648.94;5021698;28;20289;-79
2022/03/19 08:56:17;;;;;;;19.87;11.43;;;;;;;3.16;39.79;96627.06;5024828;28;20761;-80
2022/03/19 08:58:45;;;;;;;18.50;11.00;;;;;;;3.45;39.57;96635.81;5025292;28;20298;-79
2022/03/19 09:01:13;;;;;;;20.27;10.40;;;;;;;3.56;37.84;96634.94;5026029;28;20195;-77
2022/03/19 09:03:41;;;;;;;14.87;10.03;;;;;;;3.80;38.48;96628.59;5024081;28;20195;-77
2022/03/19 09:06:14;;;;;;;16.30;10.17;;;;;;;4.07;38.56;96633.16;5020904;28;20218;-77
2022/03/19 09:08:42;;;;;;;17.20;11.20;;;;;;;4.21;37.77;96632.84;5024513;28;20190;-78
2022/03/19 09:11:12;;;;;;;17.10;9.00;;;;;;;4.29;36.15;96632.19;5030388;28;20203;-79
2022/03/19 09:13:43;;;;;;;20.43;9.70;;;;;;;4.51;36.20;96635.38;5031492;28;20219;-78
2022/03/19 09:16:12;;;;;;;16.53;10.47;;;;;;;4.67;36.95;96623.75;5031157;28;20660;-76
2022/03/19 09:18:41;;;;;;;22.30;11.63;;;;;;;4.91;36.14;96637.88;5026397;28;20289;-83
2022/03/19 09:21:11;;;;;;;18.50;10.87;;;;;;;5.02;35.18;96629.22;5021024;28;20295;-78
2022/03/19 09:23:40;;;;;;;21.00;10.30;;;;;;;4.96;35.94;96633.13;5020310;28;20682;-78
2022/03/19 09:26:08;;;;;;;18.13;10.03;;;;;;;5.15;36.19;96640.88;5028315;28;20249;-77
2022/03/19 09:28:37;;;;;;;18.50;10.43;;;;;;;5.31;35.54;96631.81;5021260;28;20579;-83
2022/03/19 09:31:05;;;;;;;17.47;10.47;;;;;;;5.56;36.02;96623.50;5024162;28;20197;-76
2022/03/19 09:33:33;;;;;;;17.57;10.33;;;;;;;5.61;35.28;96624.72;5026010;28;20548;-77
2022/03/19 09:36:01;;;;;;;20.57;11.60;;;;;;;5.72;35.18;96628.88;5030271;28;20279;-78
2022/03/19 09:38:31;;;;;;;21.20;11.00;;;;;;;5.96;36.03;96631.03;5017772;28;20224;-77
2022/03/19 09:41:00;;;;;;;19.70;10.27;;;;;;;5.92;34.29;96622.75;5022610;28;20310;-77
2022/03/19 09:43:29;;;;;;;24.57;10.70;;;;;;;6.06;34.34;96622.31;5024133;28;20193;-77
2022/03/19 09:45:58;;;;;;;19.73;11.00;;;;;;;6.22;33.76;96619.94;5021673;28;20194;-77
2022/03/19 09:48:28;;;;;;;18.33;10.23;;;;;;;6.30;34.48;96624.38;5021137;28;20198;-77
2022/03/19 09:50:58;;;;;;;15.40;9.53;;;;;;;6.34;33.30;96618.00;5021303;28;20207;-77
2022/03/19 09:53:29;;;;;;;18.20;10.00;;;;;;;6.67;32.57;96624.31;5021439;28;20281;-77
2022/03/19 09:55:59;;;;;;;13.10;9.10;;;;;;;6.60;32.60;96631.03;5021254;28;20234;-77
2022/03/19 09:58:27;;;;;;;20.20;9.93;;;;;;;6.35;32.84;96627.34;5023842;28;20225;-77
2022/03/19 10:00:56;;;;;;;17.17;10.00;;;;;;;5.76;33.66;96617.34;5021827;28;20198;-77
2022/03/19 10:03:24;;;;;;;13.63;8.93;;;;;;;5.68;33.69;96615.44;5020319;28;20201;-77
2022/03/19 10:08:40;;;;;;;17.23;9.73;;;;;;;6.25;33.03;96622.25;5023433;28;20521;-77
2022/03/19 10:11:11;;;;;;;20.50;10.17;;;;;;;6.55;32.52;96621.13;5021365;28;20726;-77
2022/03/19 10:13:42;;;;;;;13.27;8.67;;;;;;;6.22;32.42;96619.13;5021107;28;20202;-76
2022/03/19 10:16:10;;;;;;;18.93;10.03;;;;;;;6.28;33.04;96624.53;5022787;28;20201;-76
2022/03/19 10:18:38;;;;;;;18.93;9.73;;;;;;;6.37;32.98;96624.63;5019836;28;20250;-77
2022/03/19 10:21:16;;;;;;;14.20;8.83;;;;;;;6.30;33.37;96626.97;5019689;28;20202;-77
2022/03/19 10:23:45;;;;;;;21.80;10.13;;;;;;;6.41;33.00;96619.03;5024431;28;20257;-77
2022/03/19 10:26:24;;;;;;;16.43;9.77;;;;;;;6.59;33.00;96624.25;5021618;28;20223;-77
2022/03/19 10:29:00;;;;;;;16.17;9.23;;;;;;;6.94;32.58;96611.38;5023646;28;20665;-79
2022/03/19 10:31:32;;;;;;;15.43;9.70;;;;;;;7.54;32.31;96614.16;5021570;28;20201;-78
2022/03/19 10:34:00;;;;;;;13.67;8.93;;;;;;;8.26;31.35;96611.19;5022550;28;20617;-78
2022/03/19 10:36:34;;;;;;;14.47;9.67;;;;;;;8.29;30.83;96603.13;5022058;28;20587;-76
2022/03/19 10:39:06;;;;;;;17.37;9.07;;;;;;;8.70;30.99;96619.66;5021143;28;20224;-78
2022/03/19 10:41:38;;;;;;;16.47;9.53;;;;;;;8.43;30.25;96611.13;5018852;28;20211;-77
2022/03/19 10:44:14;;;;;;;14.37;8.60;;;;;;;8.34;30.12;96604.28;5018717;28;20200;-77
2022/03/19 10:46:47;;;;;;;15.77;9.10;;;;;;;8.61;30.93;96610.22;5020370;28;20199;-76
2022/03/19 10:49:18;;;;;;;21.07;13.47;;;;;;;8.95;30.06;96606.59;5020909;28;20200;-76
2022/03/19 10:51:46;;;;;;;14.10;9.63;;;;;;;9.19;29.25;96605.00;5022222;28;20202;-76
2022/03/19 10:54:15;;;;;;;12.60;8.43;;;;;;;9.55;28.63;96617.50;5022009;28;20308;-77
2022/03/19 10:56:46;;;;;;;17.67;8.50;;;;;;;9.97;28.27;96613.88;5019539;28;20219;-77
2022/03/19 10:59:14;;;;;;;13.80;8.10;;;;;;;9.70;28.03;96609.84;5022577;28;20267;-78
2022/03/19 11:01:42;;;;;;;13.93;7.80;;;;;;;9.55;27.61;96616.72;5020655;28;20195;-78
2022/03/19 11:04:12;;;;;;;14.40;8.83;;;;;;;9.74;27.59;96593.00;5019944;28;20230;-77
2022/03/19 11:06:41;;;;;;;12.70;7.57;;;;;;;9.97;28.02;96600.91;5019734;28;20203;-77
2022/03/19 11:09:11;;;;;;;15.93;9.40;;;;;;;9.81;27.62;96601.75;5021325;28;20187;-78
2022/03/19 11:11:50;;;;;;;11.60;7.63;;;;;;;9.99;28.24;96604.94;5020550;28;20237;-78
2022/03/19 11:14:24;;;;;;;13.97;8.17;;;;;;;10.22;28.31;96605.06;5022859;28;20288;-78
2022/03/19 11:19:47;;;;;;;13.83;8.30;;;;;;;10.86;26.89;96613.59;5025092;28;20218;-76
2022/03/19 11:22:15;;;;;;;12.23;8.60;;;;;;;10.66;27.94;96588.00;5023357;28;20222;-78
2022/03/19 11:24:54;;;;;;;13.70;8.23;;;;;;;10.44;27.79;96590.56;5020608;28;20199;-77
2022/03/19 11:27:25;;;;;;;12.93;8.13;;;;;;;10.46;27.57;96592.00;5018006;28;20194;-78
2022/03/19 11:29:54;;;;;;;12.30;7.50;;;;;;;10.57;26.59;96596.81;5031710;28;20727;-78
2022/03/19 11:32:24;;;;;;;11.03;8.10;;;;;;;10.36;26.79;96593.19;5026885;28;20669;-78
2022/03/19 11:34:56;;;;;;;12.33;8.03;;;;;;;9.60;28.65;96584.09;5034283;28;20285;-80
2022/03/19 11:37:24;;;;;;;12.73;8.20;;;;;;;8.84;29.03;96580.16;5025602;28;20654;-79
2022/03/19 11:40:22;;;;;;;15.00;8.67;;;;;;;9.25;29.91;96575.81;5031444;28;20219;-78
2022/03/19 11:42:55;;;;;;;14.30;7.97;;;;;;;9.92;28.84;96588.44;5026078;28;20682;-79
2022/03/19 11:45:23;;;;;;;13.63;8.53;;;;;;;9.99;29.27;96565.97;5028114;28;20656;-79
2022/03/19 11:47:51;;;;;;;13.13;8.63;;;;;;;10.12;29.79;96576.69;5037073;28;20205;-79
2022/03/19 11:50:21;;;;;;;20.80;8.87;;;;;;;10.31;29.12;96578.09;5031777;28;20204;-78